SA-0003 weather

Qalibah Highway Strip
Tabuk Region, Saudi Arabia

Public forecast

Using degrees Celsius for public forecast. Weather courtesy of forecast.io.

Closest aviation weather report (METAR) to Qalibah Highway Strip

Closest report is Tabuk Airport, 74.3 nm (137.7 km) WNW. Retrieved 2019/10/22 17:00 UTC (30 minutes ago):

OETB 221700Z 25005KT 9999 SCT040 29/01 Q1012 NOSIG

Closest aviation forecast (TAF) to Qalibah Highway Strip

Closest forecast is Tabuk Airport, 74.3 nm (137.7 km) WNW. Retrieved 2019/10/22 12:06 UTC (5 hours ago):

TAF TAF OETB 221100Z 2212/2318 28014KT 9999 FEW040 SCT100 BECMG 2220/2222 VRB03KT